createdAt,value
2017-08-15T00:00:15.790Z,62.07
2017-08-15T00:01:16.138Z,62.16
2017-08-15T00:02:16.165Z,62.36
2017-08-15T00:03:16.191Z,62.16
2017-08-15T00:04:15.908Z,62.33
2017-08-15T00:05:16.251Z,62.26
2017-08-15T00:06:16.278Z,62.26
2017-08-15T00:07:16.305Z,62.36
2017-08-15T00:08:16.334Z,62.26
2017-08-15T00:09:16.366Z,62.26
2017-08-15T00:10:16.391Z,62.26
2017-08-15T00:11:16.107Z,61.68
2017-08-15T00:12:16.135Z,62.16
2017-08-15T00:13:16.730Z,62.36
2017-08-15T00:14:16.507Z,62.16
2017-08-15T00:15:16.537Z,62.16
2017-08-15T00:16:16.256Z,62.36
2017-08-15T00:17:16.597Z,62.13
2017-08-15T00:18:16.604Z,62.23
2017-08-15T00:19:16.338Z,62.13
2017-08-15T00:20:16.679Z,62.13
2017-08-15T00:21:16.709Z,62.13
2017-08-15T00:22:16.429Z,62.23
2017-08-15T00:23:17.066Z,62.04
2017-08-15T00:24:16.483Z,62.13
2017-08-15T00:25:16.508Z,62.04
2017-08-15T00:26:16.842Z,62.04
2017-08-15T00:27:16.569Z,62.13
2017-08-15T00:28:17.214Z,62.04
2017-08-15T00:29:16.629Z,62.13
2017-08-15T00:30:16.651Z,61.94
2017-08-15T00:31:16.989Z,62.04
2017-08-15T00:32:17.029Z,62.04
2017-08-15T00:33:17.358Z,62.04
2017-08-15T00:34:17.075Z,62.33
2017-08-15T00:35:16.793Z,62.13
2017-08-15T00:36:17.129Z,62.33
2017-08-15T00:37:16.854Z,62.04
2017-08-15T00:38:17.178Z,62.23
2017-08-15T00:39:17.223Z,61.94
2017-08-15T00:40:17.256Z,62.04
2017-08-15T00:41:17.281Z,62.23
2017-08-15T00:42:17.309Z,61.75
2017-08-15T00:43:17.638Z,62.04
2017-08-15T00:44:17.367Z,61.85
2017-08-15T00:45:17.083Z,61.75
2017-08-15T00:46:17.424Z,62.04
2017-08-15T00:47:17.453Z,62.04
2017-08-15T00:48:17.475Z,61.75
2017-08-15T00:49:17.199Z,61.65
2017-08-15T00:50:17.227Z,61.85
2017-08-15T00:51:17.569Z,61.75
2017-08-15T00:52:17.593Z,61.85
2017-08-15T00:53:17.924Z,61.46
2017-08-15T00:54:17.341Z,61.75
2017-08-15T00:55:17.680Z,62.04
2017-08-15T00:56:17.396Z,61.65
2017-08-15T00:57:17.738Z,62.04
2017-08-15T00:58:17.753Z,62.13
2017-08-15T00:59:17.795Z,61.75
2017-08-15T01:00:17.824Z,61.94
2017-08-15T01:01:17.852Z,62.04
2017-08-15T01:02:17.565Z,62.13
2017-08-15T01:03:17.894Z,62.23
2017-08-15T01:04:17.939Z,62.13
2017-08-15T01:05:17.656Z,61.94
2017-08-15T01:06:17.992Z,61.65
2017-08-15T01:07:17.713Z,62.04
2017-08-15T01:08:18.307Z,62.04
2017-08-15T01:09:18.079Z,61.75
2017-08-15T01:10:18.118Z,62.04
2017-08-15T01:11:17.828Z,61.85
2017-08-15T01:12:18.177Z,61.46
2017-08-15T01:13:18.450Z,62.04
2017-08-15T01:14:17.907Z,61.55
2017-08-15T01:15:17.940Z,61.75
2017-08-15T01:16:18.282Z,61.55
2017-08-15T01:17:18.310Z,61.65
2017-08-15T01:18:18.030Z,61.94
2017-08-15T01:19:18.050Z,61.55
2017-08-15T01:20:18.407Z,61.46
2017-08-15T01:21:18.426Z,62.04
2017-08-15T01:22:18.454Z,62.04
2017-08-15T01:23:18.482Z,62.04
2017-08-15T01:24:18.515Z,61.55
2017-08-15T01:25:18.540Z,61.65
2017-08-15T01:26:18.569Z,61.55
2017-08-15T01:27:18.282Z,61.55
2017-08-15T01:28:18.629Z,61.55
2017-08-15T01:29:18.663Z,61.55
2017-08-15T01:30:18.368Z,61.36
2017-08-15T01:31:18.713Z,61.46
2017-08-15T01:32:18.734Z,61.75
2017-08-15T01:33:18.766Z,61.75
2017-08-15T01:34:18.485Z,61.75
2017-08-15T01:35:18.512Z,61.46
2017-08-15T01:36:18.860Z,61.55
2017-08-15T01:37:18.879Z,61.55
2017-08-15T01:38:18.602Z,61.75
2017-08-15T01:39:18.631Z,61.65
2017-08-15T01:40:18.969Z,61.46
2017-08-15T01:41:18.997Z,61.36
2017-08-15T01:42:19.037Z,61.85
2017-08-15T01:43:18.763Z,61.46
2017-08-15T01:44:18.768Z,61.36
2017-08-15T01:45:19.108Z,61.46
2017-08-15T01:46:19.137Z,61.55
2017-08-15T01:47:18.854Z,61.26
2017-08-15T01:48:18.883Z,61.26
2017-08-15T01:49:19.233Z,61.46
2017-08-15T01:50:19.256Z,61.75
2017-08-15T01:51:19.281Z,61.36
2017-08-15T01:52:19.311Z,61.55
2017-08-15T01:53:19.341Z,61.46
2017-08-15T01:54:19.362Z,61.46
2017-08-15T01:55:19.391Z,61.46
2017-08-15T01:56:19.420Z,61.36
2017-08-15T01:57:19.455Z,61.55
2017-08-15T01:58:19.482Z,61.75
2017-08-15T01:59:19.516Z,61.36
2017-08-15T02:00:19.537Z,61.36
2017-08-15T02:01:19.253Z,61.65
2017-08-15T02:02:19.590Z,61.46
2017-08-15T02:03:19.623Z,61.65
2017-08-15T02:04:19.652Z,61.46
2017-08-15T02:05:19.363Z,61.36
2017-08-15T02:06:19.710Z,61.55
2017-08-15T02:07:19.422Z,61.55
2017-08-15T02:08:19.450Z,61.36
2017-08-15T02:09:19.486Z,61.46
2017-08-15T02:10:19.820Z,61.55
2017-08-15T02:11:19.849Z,61.36
2017-08-15T02:12:19.874Z,61.26
2017-08-15T02:13:19.604Z,60.97
2017-08-15T02:14:19.623Z,60.97
2017-08-15T02:15:19.967Z,60.97
2017-08-15T02:16:19.673Z,60.78
2017-08-15T02:17:19.707Z,60.88
2017-08-15T02:18:20.047Z,60.78
2017-08-15T02:19:19.768Z,60.94
2017-08-15T02:20:20.111Z,61.07
2017-08-15T02:21:19.821Z,60.97
2017-08-15T02:22:20.162Z,61.07
2017-08-15T02:23:20.215Z,60.97
2017-08-15T02:24:19.907Z,60.78
2017-08-15T02:25:20.243Z,60.97
2017-08-15T02:26:20.273Z,60.97
2017-08-15T02:27:20.302Z,60.68
2017-08-15T02:28:20.332Z,60.88
2017-08-15T02:29:20.360Z,60.88
2017-08-15T02:30:20.389Z,60.97
2017-08-15T02:31:20.413Z,60.97
2017-08-15T02:32:20.447Z,60.78
2017-08-15T02:33:20.475Z,61.07
2017-08-15T02:34:20.505Z,61.17
2017-08-15T02:35:20.540Z,60.97
2017-08-15T02:36:20.553Z,61.04
2017-08-15T02:37:20.282Z,61.07
2017-08-15T02:38:20.616Z,61.17
2017-08-15T02:39:20.651Z,61.07
2017-08-15T02:40:20.365Z,61.07
2017-08-15T02:41:20.706Z,61.04
2017-08-15T02:42:20.732Z,61.04
2017-08-15T02:43:20.452Z,61.07
2017-08-15T02:44:20.791Z,60.97
2017-08-15T02:45:20.822Z,61.07
2017-08-15T02:46:20.846Z,60.78
2017-08-15T02:47:20.875Z,61.04
2017-08-15T02:48:20.910Z,61.04
2017-08-15T02:49:20.932Z,60.97
2017-08-15T02:50:20.958Z,60.94
2017-08-15T02:51:20.986Z,60.85
2017-08-15T02:52:21.022Z,61.14
2017-08-15T02:53:20.731Z,60.75
2017-08-15T02:54:21.073Z,61.14
2017-08-15T02:55:20.788Z,60.85
2017-08-15T02:56:21.126Z,60.85
2017-08-15T02:57:21.158Z,60.94
2017-08-15T02:58:21.183Z,60.75
2017-08-15T02:59:20.906Z,60.94
2017-08-15T03:00:21.237Z,61.04
2017-08-15T03:01:21.302Z,60.94
2017-08-15T03:02:20.987Z,60.94
2017-08-15T03:03:21.015Z,61.04
2017-08-15T03:04:21.344Z,61.04
2017-08-15T03:05:21.341Z,61.14
2017-08-15T03:06:21.418Z,61.04
2017-08-15T03:07:21.438Z,61.04
2017-08-15T03:08:21.468Z,61.04
2017-08-15T03:09:21.747Z,61.24
2017-08-15T03:10:21.213Z,61.14
2017-08-15T03:11:21.242Z,61.14
2017-08-15T03:12:21.584Z,61.14
2017-08-15T03:13:21.296Z,61.04
2017-08-15T03:14:21.627Z,60.85
2017-08-15T03:15:21.352Z,60.94
2017-08-15T03:16:21.689Z,60.94
2017-08-15T03:17:21.414Z,60.85
2017-08-15T03:18:21.440Z,60.94
2017-08-15T03:19:22.040Z,61.33
2017-08-15T03:20:21.812Z,61.14
2017-08-15T03:21:21.530Z,61.04
2017-08-15T03:22:21.555Z,61.14
2017-08-15T03:23:21.891Z,61.24
2017-08-15T03:24:21.908Z,61.04
2017-08-15T03:25:21.948Z,61.14
2017-08-15T03:26:21.974Z,61.24
2017-08-15T03:27:21.698Z,61.14
2017-08-15T03:28:21.721Z,61.14
2017-08-15T03:29:22.359Z,61.24
2017-08-15T03:30:22.097Z,61.14
2017-08-15T03:31:22.122Z,60.94
2017-08-15T03:32:22.142Z,60.94
2017-08-15T03:33:22.171Z,61.04
2017-08-15T03:34:22.504Z,60.75
2017-08-15T03:35:22.234Z,60.75
2017-08-15T03:36:22.265Z,60.85
2017-08-15T03:37:22.286Z,61.14
2017-08-15T03:38:22.323Z,60.75
2017-08-15T03:39:22.646Z,60.94
2017-08-15T03:40:22.369Z,61.24
2017-08-15T03:41:22.089Z,61.14
2017-08-15T03:42:22.430Z,60.94
2017-08-15T03:43:22.459Z,61.33
2017-08-15T03:44:22.787Z,61.24
2017-08-15T03:45:22.517Z,60.94
2017-08-15T03:46:22.542Z,60.75
2017-08-15T03:47:22.571Z,60.75
2017-08-15T03:48:22.288Z,60.94
2017-08-15T03:49:22.612Z,60.75
2017-08-15T03:50:22.345Z,60.55
2017-08-15T03:51:22.373Z,60.65
2017-08-15T03:52:22.710Z,61.04
2017-08-15T03:53:22.744Z,61.33
2017-08-15T03:54:23.076Z,61.14
2017-08-15T03:55:22.484Z,60.75
2017-08-15T03:56:22.825Z,61.04
2017-08-15T03:57:23.123Z,60.65
2017-08-15T03:58:22.881Z,60.65
2017-08-15T03:59:23.267Z,60.85
2017-08-15T04:00:22.943Z,61.33
2017-08-15T04:01:22.971Z,61.14
2017-08-15T04:02:22.994Z,60.94
2017-08-15T04:04:31.965Z,60.75
2017-08-15T04:05:31.690Z,61.04
2017-08-15T04:06:31.741Z,61.43
2017-08-15T04:07:31.430Z,61.14
2017-08-15T04:08:31.763Z,61.43
2017-08-15T04:09:32.101Z,60.94
2017-08-15T04:10:31.831Z,61.04
2017-08-15T04:11:31.859Z,61.24
2017-08-15T04:12:31.892Z,61.14
2017-08-15T04:13:31.920Z,61.14
2017-08-15T04:14:32.197Z,61.04
2017-08-15T04:15:31.656Z,61.14
2017-08-15T04:16:31.999Z,60.65
2017-08-15T04:17:32.027Z,60.85
2017-08-15T04:18:32.059Z,61.04
2017-08-15T04:19:32.021Z,60.55
2017-08-15T04:20:32.117Z,60.94
2017-08-15T04:21:32.144Z,61.14
2017-08-15T04:22:32.168Z,60.94
2017-08-15T04:23:31.890Z,61.14
2017-08-15T04:24:32.521Z,61.43
2017-08-15T04:25:32.258Z,61.04
2017-08-15T04:26:32.282Z,60.94
2017-08-15T04:27:31.996Z,61.33
2017-08-15T04:28:32.340Z,60.55
2017-08-15T04:29:32.360Z,60.75
2017-08-15T04:30:32.394Z,60.65
2017-08-15T04:31:32.428Z,61.04
2017-08-15T04:32:32.447Z,61.14
2017-08-15T04:33:32.477Z,60.27
2017-08-15T04:34:32.501Z,61.04
2017-08-15T04:35:32.539Z,60.36
2017-08-15T04:36:32.561Z,61.24
2017-08-15T04:37:32.595Z,61.14
2017-08-15T04:38:32.307Z,60.94
2017-08-15T04:39:32.996Z,61.24
2017-08-15T04:40:32.682Z,60.94
2017-08-15T04:41:32.710Z,60.55
2017-08-15T04:42:32.738Z,61.04
2017-08-15T04:43:32.448Z,60.85
2017-08-15T04:44:33.092Z,60.55
2017-08-15T04:45:32.509Z,60.94
2017-08-15T04:46:32.537Z,60.55
2017-08-15T04:47:32.890Z,60.65
2017-08-15T04:48:32.905Z,60.75
2017-08-15T04:49:33.232Z,60.55
2017-08-15T04:50:32.961Z,60.55
2017-08-15T04:51:32.676Z,60.85
2017-08-15T04:52:33.015Z,60.65
2017-08-15T04:53:33.056Z,60.55
2017-08-15T04:54:33.068Z,60.75
2017-08-15T04:55:33.102Z,60.85
2017-08-15T04:56:33.131Z,60.94
2017-08-15T04:57:33.147Z,60.65
2017-08-15T04:58:33.184Z,60.55
2017-08-15T04:59:32.902Z,60.94
2017-08-15T05:00:32.932Z,60.65
2017-08-15T05:01:32.959Z,60.94
2017-08-15T05:02:33.292Z,60.36
2017-08-15T05:03:33.012Z,60.62
2017-08-15T05:04:33.354Z,61.01
2017-08-15T05:05:33.385Z,60.52
2017-08-15T05:06:33.407Z,60.85
2017-08-15T05:07:33.446Z,60.65
2017-08-15T05:08:33.472Z,60.75
2017-08-15T05:09:33.494Z,60.55
2017-08-15T05:10:33.522Z,61.04
2017-08-15T05:11:33.239Z,61.04
2017-08-15T05:12:33.271Z,60.55
2017-08-15T05:13:33.609Z,60.65
2017-08-15T05:14:33.325Z,60.75
2017-08-15T05:15:33.666Z,60.85
2017-08-15T05:16:33.692Z,60.65
2017-08-15T05:17:33.718Z,60.65
2017-08-15T05:18:33.440Z,60.52
2017-08-15T05:19:33.469Z,60.62
2017-08-15T05:20:33.806Z,60.65
2017-08-15T05:21:33.534Z,60.94
2017-08-15T05:22:33.552Z,60.75
2017-08-15T05:23:33.889Z,60.94
2017-08-15T05:24:33.914Z,60.62
2017-08-15T05:25:33.943Z,60.62
2017-08-15T05:26:33.979Z,60.65
2017-08-15T05:27:33.689Z,60.27
2017-08-15T05:28:33.715Z,60.27
2017-08-15T05:29:33.749Z,60.14
2017-08-15T05:30:34.389Z,59.97
2017-08-15T05:31:34.111Z,60.27
2017-08-15T05:32:34.148Z,60.36
2017-08-15T05:33:33.857Z,60.36
2017-08-15T05:34:34.198Z,60.27
2017-08-15T05:35:34.527Z,60.75
2017-08-15T05:36:34.247Z,60.27
2017-08-15T05:37:34.292Z,60.17
2017-08-15T05:38:33.999Z,60.36
2017-08-15T05:39:34.338Z,60.55
2017-08-15T05:40:34.614Z,60.36
2017-08-15T05:41:34.079Z,60.33
2017-08-15T05:42:34.112Z,60.46
2017-08-15T05:43:34.141Z,60.46
2017-08-15T05:44:34.481Z,60.17
2017-08-15T05:45:34.806Z,60.46
2017-08-15T05:46:34.534Z,60.27
2017-08-15T05:47:34.252Z,60.36
2017-08-15T05:48:34.590Z,60.36
2017-08-15T05:49:34.314Z,60.36
2017-08-15T05:50:34.629Z,60.55
2017-08-15T05:51:34.680Z,60.36
2017-08-15T05:52:34.703Z,60.36
2017-08-15T05:53:34.447Z,60.36
2017-08-15T05:54:34.762Z,60.55
2017-08-15T05:55:35.088Z,60.17
2017-08-15T05:56:34.818Z,60.46
2017-08-15T05:57:34.539Z,60.36
2017-08-15T05:58:34.873Z,60.65
2017-08-15T05:59:34.903Z,60.07
2017-08-15T06:00:34.950Z,60.17
2017-08-15T06:01:34.648Z,60.17
2017-08-15T06:02:34.675Z,60.36
2017-08-15T06:03:35.017Z,60.27
2017-08-15T06:04:34.732Z,60.36
2017-08-15T06:05:35.370Z,60.07
2017-08-15T06:06:35.100Z,60.07
2017-08-15T06:07:35.134Z,60.17
2017-08-15T06:08:35.153Z,59.97
2017-08-15T06:09:35.186Z,60.07
2017-08-15T06:10:34.907Z,60.46
2017-08-15T06:11:34.928Z,60.17
2017-08-15T06:12:35.268Z,59.97
2017-08-15T06:13:35.301Z,60.36
2017-08-15T06:14:35.326Z,60.36
2017-08-15T06:15:35.355Z,60.36
2017-08-15T06:16:35.078Z,60.36
2017-08-15T06:17:35.408Z,60.27
2017-08-15T06:18:35.436Z,60.17
2017-08-15T06:19:35.159Z,59.97
2017-08-15T06:20:35.488Z,60.07
2017-08-15T06:21:35.525Z,60.17
2017-08-15T06:22:35.552Z,60.27
2017-08-15T06:23:35.576Z,60.07
2017-08-15T06:24:35.605Z,60.36
2017-08-15T06:25:35.322Z,60.55
2017-08-15T06:26:35.665Z,60.55
2017-08-15T06:27:35.696Z,60.36
2017-08-15T06:28:35.743Z,60.46
2017-08-15T06:29:35.745Z,60.27
2017-08-15T06:30:35.774Z,60.17
2017-08-15T06:31:35.803Z,60.36
2017-08-15T06:32:35.832Z,60.36
2017-08-15T06:33:35.860Z,60.27
2017-08-15T06:34:35.577Z,60.65
2017-08-15T06:35:35.919Z,60.36
2017-08-15T06:36:35.636Z,60.36
2017-08-15T06:37:35.980Z,59.97
2017-08-15T06:38:35.685Z,60.07
2017-08-15T06:39:36.029Z,59.78
2017-08-15T06:40:36.050Z,59.69
2017-08-15T06:41:36.087Z,59.88
2017-08-15T06:42:36.118Z,59.69
2017-08-15T06:43:36.144Z,59.97
2017-08-15T06:44:36.170Z,60.17
2017-08-15T06:45:36.198Z,59.49
2017-08-15T06:46:35.915Z,59.39
2017-08-15T06:47:36.260Z,59.39
2017-08-15T06:48:35.973Z,59.59
2017-08-15T06:49:36.002Z,59.3
2017-08-15T06:50:36.342Z,59.3
2017-08-15T06:51:36.368Z,59.1
2017-08-15T06:52:36.396Z,59.49
2017-08-15T06:53:36.429Z,59.1
2017-08-15T06:54:36.454Z,59.3
2017-08-15T06:55:36.483Z,59.39
2017-08-15T06:56:36.516Z,59.1
2017-08-15T06:57:36.232Z,59.1
2017-08-15T06:58:36.583Z,58.84
2017-08-15T06:59:36.605Z,58.81
2017-08-15T07:00:36.623Z,59.1
2017-08-15T07:01:36.652Z,59.2
2017-08-15T07:02:36.697Z,59.3
2017-08-15T07:03:36.708Z,59.39
2017-08-15T07:04:36.737Z,58.91
2017-08-15T07:05:36.772Z,58.62
2017-08-15T07:06:36.791Z,58.55
2017-08-15T07:07:36.510Z,58.45
2017-08-15T07:08:36.849Z,58.55
2017-08-15T07:09:36.883Z,58.36
2017-08-15T07:10:36.594Z,58.45
2017-08-15T07:11:36.924Z,58.26
2017-08-15T07:12:36.964Z,58.55
2017-08-15T07:13:36.993Z,58.45
2017-08-15T07:14:36.706Z,58.16
2017-08-15T07:15:36.738Z,57.87
2017-08-15T07:16:37.007Z,57.87
2017-08-15T07:17:37.104Z,57.78
2017-08-15T07:18:37.127Z,57.87
2017-08-15T07:19:37.166Z,57.78
2017-08-15T07:20:37.191Z,57.58
2017-08-15T07:21:37.526Z,57.97
2017-08-15T07:22:37.248Z,58.26
2017-08-15T07:23:36.960Z,58.36
2017-08-15T07:24:36.990Z,58.65
2017-08-15T07:25:37.020Z,58.65
2017-08-15T07:26:37.662Z,58.74
2017-08-15T07:27:37.393Z,58.55
2017-08-15T07:28:37.437Z,58.65
2017-08-15T07:29:37.447Z,59.33
2017-08-15T07:30:37.163Z,59.13
2017-08-15T07:31:37.760Z,58.65
2017-08-15T07:32:37.541Z,58.65
2017-08-15T07:33:37.566Z,58.45
2017-08-15T07:34:37.278Z,58.26
2017-08-15T07:35:37.611Z,58.45
2017-08-15T07:36:37.960Z,58.45
2017-08-15T07:37:37.673Z,58.36
2017-08-15T07:38:37.701Z,58.26
2017-08-15T07:39:37.731Z,58.26
2017-08-15T07:40:37.762Z,58.16
2017-08-15T07:41:38.035Z,58.65
2017-08-15T07:42:37.817Z,58.16
2017-08-15T07:43:37.845Z,57.78
2017-08-15T07:44:37.876Z,57.87
2017-08-15T07:45:37.907Z,57.48
2017-08-15T07:46:38.231Z,57.68
2017-08-15T07:47:37.962Z,57.78
2017-08-15T07:48:37.986Z,58.09
2017-08-15T07:49:38.022Z,58.19
2017-08-15T07:50:38.041Z,57.39
2017-08-15T07:51:38.071Z,57.97
2017-08-15T07:52:37.790Z,57.51
2017-08-15T07:53:37.818Z,57.42
2017-08-15T07:54:38.160Z,57.32
2017-08-15T07:55:38.187Z,57.51
2017-08-15T07:56:38.219Z,57.03
2017-08-15T07:57:38.245Z,57.51
2017-08-15T07:58:38.274Z,57.03
2017-08-15T07:59:38.308Z,57.61
2017-08-15T08:00:38.326Z,57.51
2017-08-15T08:01:38.357Z,57.22
2017-08-15T08:02:38.388Z,57.22
2017-08-15T08:03:38.420Z,57.12
2017-08-15T08:04:38.450Z,56.93
2017-08-15T08:05:38.467Z,57.42
2017-08-15T08:06:38.188Z,57.32
2017-08-15T08:07:38.529Z,56.64
2017-08-15T08:08:38.558Z,56.64
2017-08-15T08:09:38.583Z,57.12
2017-08-15T08:10:38.627Z,56.74
2017-08-15T08:11:38.645Z,56.74
2017-08-15T08:12:38.673Z,56.83
2017-08-15T08:13:38.701Z,56.05
2017-08-15T08:14:38.730Z,56.35
2017-08-15T08:15:38.760Z,55.87
2017-08-15T08:16:38.480Z,55.96
2017-08-15T08:17:38.814Z,55.87
2017-08-15T08:18:38.847Z,56.35
2017-08-15T08:19:38.874Z,56.37
2017-08-15T08:20:38.899Z,56.05
2017-08-15T08:21:38.939Z,56.09
2017-08-15T08:22:38.969Z,56.18
2017-08-15T08:23:38.986Z,56.18
2017-08-15T08:24:38.703Z,55.6
2017-08-15T08:25:39.045Z,56.09
2017-08-15T08:26:39.071Z,56.15
2017-08-15T08:27:39.104Z,55.6
2017-08-15T08:28:39.135Z,55.5
2017-08-15T08:29:39.159Z,56.09
2017-08-15T08:30:39.195Z,55.69
2017-08-15T08:31:39.225Z,55.41
2017-08-15T08:32:39.250Z,55.79
2017-08-15T08:33:39.274Z,55.79
2017-08-15T08:34:39.310Z,55.89
2017-08-15T08:35:39.339Z,55.6
2017-08-15T08:36:39.052Z,55.89
2017-08-15T08:37:39.400Z,55.11
2017-08-15T08:38:39.424Z,55.41
2017-08-15T08:39:39.447Z,55.79
2017-08-15T08:40:39.478Z,55.79
2017-08-15T08:41:39.197Z,55.6
2017-08-15T08:42:39.788Z,55.24
2017-08-15T08:43:39.566Z,55.79
2017-08-15T08:44:39.604Z,55.24
2017-08-15T08:45:39.627Z,55.33
2017-08-15T08:46:39.647Z,55.53
2017-08-15T08:47:39.667Z,55.63
2017-08-15T08:48:39.710Z,55.53
2017-08-15T08:49:39.733Z,55.92
2017-08-15T08:50:39.772Z,55.92
2017-08-15T08:51:39.802Z,55.53
2017-08-15T08:52:40.073Z,55.53
2017-08-15T08:53:39.855Z,55.63
2017-08-15T08:54:39.883Z,55.53
2017-08-15T08:55:39.599Z,55.43
2017-08-15T08:56:39.629Z,55.43
2017-08-15T08:57:40.223Z,55.33
2017-08-15T08:58:39.996Z,55.33
2017-08-15T08:59:39.716Z,55.33
2017-08-15T09:00:40.056Z,55.43
2017-08-15T09:01:40.081Z,55.73
2017-08-15T09:02:40.105Z,55.14
2017-08-15T09:03:40.175Z,55.14
2017-08-15T09:04:40.176Z,55.14
2017-08-15T09:05:40.221Z,55.53
2017-08-15T09:06:40.232Z,56.01
2017-08-15T09:07:40.564Z,55.63
2017-08-15T09:08:40.290Z,55.53
2017-08-15T09:09:40.013Z,55.63
2017-08-15T09:10:40.350Z,55.63
2017-08-15T09:11:40.065Z,55.33
2017-08-15T09:12:40.702Z,55.73
2017-08-15T09:13:40.440Z,55.53
2017-08-15T09:14:40.467Z,55.63
2017-08-15T09:15:40.520Z,55.24
2017-08-15T09:16:40.522Z,55.82
2017-08-15T09:17:40.538Z,55.24
2017-08-15T09:18:40.612Z,55.82
2017-08-15T09:19:40.296Z,55.24
2017-08-15T09:20:40.332Z,55.53
2017-08-15T09:21:40.669Z,55.14
2017-08-15T09:22:40.640Z,55.33
2017-08-15T09:23:40.419Z,55.43
2017-08-15T09:24:40.751Z,55.14
2017-08-15T09:25:40.783Z,55.53
2017-08-15T09:26:40.824Z,55.24
2017-08-15T09:27:41.142Z,55.82
2017-08-15T09:28:40.555Z,55.73
2017-08-15T09:29:40.593Z,55.82
2017-08-15T09:30:40.935Z,55.33
2017-08-15T09:31:40.956Z,55.53
2017-08-15T09:32:40.987Z,55.73
2017-08-15T09:33:41.023Z,55.43
2017-08-15T09:34:41.048Z,55.73
2017-08-15T09:35:41.077Z,55.85
2017-08-15T09:36:41.106Z,55.92
2017-08-15T09:37:41.136Z,55.85
2017-08-15T09:38:41.165Z,55.92
2017-08-15T09:39:41.191Z,55.92
2017-08-15T09:40:40.924Z,55.92
2017-08-15T09:41:40.970Z,55.92
2017-08-15T09:42:41.287Z,56.01
2017-08-15T09:43:41.000Z,55.92
2017-08-15T09:44:41.029Z,55.92
2017-08-15T09:45:41.365Z,55.82
2017-08-15T09:46:41.403Z,55.75
2017-08-15T09:47:41.426Z,56.01
2017-08-15T09:48:41.459Z,55.82
2017-08-15T09:49:41.487Z,56.01
2017-08-15T09:50:41.197Z,55.14
2017-08-15T09:51:41.550Z,55.53
2017-08-15T09:52:41.262Z,55.43
2017-08-15T09:53:41.602Z,55.27
2017-08-15T09:54:41.319Z,55.63
2017-08-15T09:55:41.661Z,56.01
2017-08-15T09:56:41.689Z,55.82
2017-08-15T09:57:41.719Z,55.82
2017-08-15T09:58:41.434Z,56.01
2017-08-15T09:59:41.776Z,56.11
2017-08-15T10:00:41.810Z,55.63
2017-08-15T10:01:41.526Z,56.01
2017-08-15T10:02:41.862Z,55.92
2017-08-15T10:03:41.895Z,56.21
2017-08-15T10:04:41.612Z,56.01
2017-08-15T10:05:41.953Z,56.21
2017-08-15T10:06:41.680Z,56.21
2017-08-15T10:07:42.009Z,56.3
2017-08-15T10:08:42.035Z,56.6
2017-08-15T10:09:41.762Z,56.21
2017-08-15T10:10:41.788Z,56.3
2017-08-15T10:11:42.126Z,56.4
2017-08-15T10:12:42.165Z,56.6
2017-08-15T10:13:42.183Z,56.3
2017-08-15T10:14:42.221Z,56.21
2017-08-15T10:15:41.933Z,56.5
2017-08-15T10:16:42.274Z,56.7
2017-08-15T10:17:42.305Z,56.79
2017-08-15T10:18:42.327Z,57.18
2017-08-15T10:19:42.370Z,57.28
2017-08-15T10:20:42.390Z,56.7
2017-08-15T10:21:42.106Z,57.37
2017-08-15T10:22:42.450Z,57.18
2017-08-15T10:23:42.484Z,57.28
2017-08-15T10:24:42.509Z,57.18
2017-08-15T10:25:42.538Z,57.76
2017-08-15T10:26:42.570Z,57.34
2017-08-15T10:27:42.591Z,57.34
2017-08-15T10:28:42.624Z,57.76
2017-08-15T10:29:42.653Z,57.54
2017-08-15T10:30:42.677Z,57.25
2017-08-15T10:31:42.715Z,57.54
2017-08-15T10:32:42.431Z,58.03
2017-08-15T10:33:42.460Z,57.83
2017-08-15T10:34:42.800Z,57.93
2017-08-15T10:35:42.513Z,58.03
2017-08-15T10:36:42.854Z,57.73
2017-08-15T10:37:42.887Z,57.64
2017-08-15T10:38:42.608Z,57.73
2017-08-15T10:39:42.943Z,57.64
2017-08-15T10:40:42.971Z,57.83
2017-08-15T10:41:42.994Z,58.03
2017-08-15T10:42:43.036Z,58.12
2017-08-15T10:43:43.053Z,58.31
2017-08-15T10:44:42.784Z,58.7
2017-08-15T10:45:43.126Z,58.61
2017-08-15T10:46:43.150Z,58.51
2017-08-15T10:47:43.175Z,59.19
2017-08-15T10:48:43.191Z,58.9
2017-08-15T10:49:42.924Z,59.58
2017-08-15T10:50:42.951Z,59.38
2017-08-15T10:51:43.290Z,60.16
2017-08-15T10:52:43.012Z,59.87
2017-08-15T10:53:43.652Z,60.06
2017-08-15T10:54:43.385Z,60.55
2017-08-15T10:55:43.410Z,60.25
2017-08-15T10:56:43.449Z,60.64
2017-08-15T10:57:43.466Z,60.06
2017-08-15T10:58:43.746Z,60.55
2017-08-15T10:59:43.530Z,60.64
2017-08-15T11:00:43.540Z,60.55
2017-08-15T11:01:43.595Z,60.64
2017-08-15T11:02:43.617Z,60.45
2017-08-15T11:03:43.932Z,60.64
2017-08-15T11:04:43.673Z,60.35
2017-08-15T11:05:43.694Z,60.94
2017-08-15T11:06:43.729Z,60.91
2017-08-15T11:07:43.760Z,61.04
2017-08-15T11:08:44.091Z,60.91
2017-08-15T11:09:43.498Z,61.42
2017-08-15T11:10:43.859Z,62.29
2017-08-15T11:11:43.564Z,62.29
2017-08-15T11:12:43.592Z,62.1
2017-08-15T11:13:44.244Z,62.65
2017-08-15T11:14:43.964Z,62.95
2017-08-15T11:15:43.989Z,62.98
2017-08-15T11:16:43.702Z,63.04
2017-08-15T11:17:44.043Z,63.26
2017-08-15T11:18:44.077Z,63.65
2017-08-15T11:19:44.104Z,63.04
2017-08-15T11:20:44.134Z,62.95
2017-08-15T11:21:44.165Z,62.68
2017-08-15T11:22:44.192Z,63.04
2017-08-15T11:23:44.230Z,62.85
2017-08-15T11:24:44.245Z,63.13
2017-08-15T11:25:44.278Z,63.13
2017-08-15T11:26:44.310Z,63.33
2017-08-15T11:27:44.332Z,63.72
2017-08-15T11:28:44.057Z,64.59
2017-08-15T11:29:44.076Z,64.69
2017-08-15T11:30:44.424Z,64.59
2017-08-15T11:31:44.454Z,65.08
2017-08-15T11:32:44.161Z,64.3
2017-08-15T11:33:44.192Z,64.78
2017-08-15T11:34:44.235Z,64.59
2017-08-15T11:35:44.266Z,64.3
2017-08-15T11:36:44.592Z,64.3
2017-08-15T11:37:44.628Z,64.4
2017-08-15T11:38:44.655Z,64.3
2017-08-15T11:39:44.373Z,64.3
2017-08-15T11:40:44.707Z,64.4
2017-08-15T11:41:44.744Z,64.78
2017-08-15T11:42:44.765Z,65.08
2017-08-15T11:43:44.801Z,64.4
2017-08-15T11:44:44.833Z,64.98
2017-08-15T11:45:44.542Z,64.59
2017-08-15T11:46:44.890Z,65.17
2017-08-15T11:47:44.909Z,64.3
2017-08-15T11:48:44.945Z,65.17
2017-08-15T11:49:44.970Z,64.78
2017-08-15T11:50:44.998Z,65.27
2017-08-15T11:51:44.720Z,65.17
2017-08-15T11:52:45.081Z,65.56
2017-08-15T11:53:45.080Z,65.37
2017-08-15T11:54:44.798Z,65.85
2017-08-15T11:55:45.146Z,66.24
2017-08-15T11:56:45.170Z,66.2
2017-08-15T11:57:44.888Z,66.24
2017-08-15T11:58:44.918Z,66.24
2017-08-15T11:59:45.258Z,65.66
2017-08-15T12:00:44.972Z,65.82
2017-08-15T12:01:45.323Z,66.11
2017-08-15T12:02:45.346Z,64.95
2017-08-15T12:03:45.377Z,65.43
2017-08-15T12:04:45.398Z,65.08
2017-08-15T12:05:45.431Z,64.88
2017-08-15T12:06:45.145Z,65.08
2017-08-15T12:07:45.172Z,65.56
2017-08-15T12:08:45.209Z,64.98
2017-08-15T12:09:45.230Z,65.17
2017-08-15T12:10:45.575Z,65.08
2017-08-15T12:11:45.606Z,64.88
2017-08-15T12:12:45.633Z,65.17
2017-08-15T12:13:45.665Z,64.98
2017-08-15T12:14:45.711Z,64.88
2017-08-15T12:15:45.756Z,65.08
2017-08-15T12:16:45.434Z,64.88
2017-08-15T12:17:45.784Z,64.78
2017-08-15T12:18:45.810Z,64.5
2017-08-15T12:19:45.523Z,65.17
2017-08-15T12:20:45.859Z,65.01
2017-08-15T12:21:45.898Z,65.11
2017-08-15T12:22:45.922Z,64.92
2017-08-15T12:23:45.953Z,64.82
2017-08-15T12:24:45.979Z,64.43
2017-08-15T12:25:46.010Z,64.92
2017-08-15T12:26:45.746Z,64.53
2017-08-15T12:27:46.071Z,63.98
2017-08-15T12:28:46.101Z,64.56
2017-08-15T12:29:45.814Z,63.68
2017-08-15T12:30:46.155Z,63.68
2017-08-15T12:31:45.872Z,64.36
2017-08-15T12:32:46.215Z,63.29
2017-08-15T12:33:46.240Z,63.29
2017-08-15T12:34:46.271Z,64.17
2017-08-15T12:35:45.991Z,64.17
2017-08-15T12:36:46.331Z,63.39
2017-08-15T12:37:46.359Z,63.49
2017-08-15T12:38:46.397Z,63.29
2017-08-15T12:39:46.118Z,63.98
2017-08-15T12:40:46.144Z,64.17
2017-08-15T12:41:46.488Z,64.36
2017-08-15T12:42:46.505Z,64.07
2017-08-15T12:43:46.534Z,63.1
2017-08-15T12:44:46.567Z,64.17
2017-08-15T12:45:46.283Z,64.07
2017-08-15T12:46:46.624Z,64.17
2017-08-15T12:47:46.654Z,63.78
2017-08-15T12:48:46.679Z,63.78
2017-08-15T12:49:46.714Z,64.36
2017-08-15T12:50:46.427Z,63.98
2017-08-15T12:51:46.765Z,64.17
2017-08-15T12:52:46.804Z,64.17
2017-08-15T12:53:46.828Z,64.56
2017-08-15T12:54:46.872Z,64.36